Time;durP1;ratioP1;P1;durP2;ratioP2;P2;SDS_P1;SDS_P2;PMS_P1;PMS_P2;Temp;Humidity;BMP_temperature;BMP_pressure;BME280_temperature;BME280_humidity;BME280_pressure;Samples;Min_cycle;Max_cycle;Signal;HPM_P1;HPM_P2
2021/07/06 00:01:54;;;;;;;3.53;2.20;;;25.90;53.90;;;;;;6300398;28;20051;-75
2021/07/06 00:05:01;;;;;;;6.95;2.05;;;25.90;54.30;;;;;;6301045;28;20036;-75
2021/07/06 00:08:02;;;;;;;4.05;2.45;;;25.80;54.50;;;;;;6301021;28;20113;-76
2021/07/06 00:11:04;;;;;;;3.78;2.17;;;25.70;54.80;;;;;;6300631;28;20044;-76
2021/07/06 00:14:06;;;;;;;3.00;1.67;;;25.60;54.90;;;;;;6317736;28;20036;-76
2021/07/06 00:17:07;;;;;;;7.32;1.58;;;25.60;55.10;;;;;;6300034;28;20401;-74
2021/07/06 00:20:11;;;;;;;6.55;1.75;;;25.50;55.20;;;;;;6289866;28;20067;-76
2021/07/06 00:23:12;;;;;;;3.88;1.20;;;25.40;55.20;;;;;;6301352;28;20036;-76
2021/07/06 00:26:13;;;;;;;3.97;1.40;;;25.40;55.40;;;;;;6298798;28;20465;-76
2021/07/06 00:29:15;;;;;;;6.40;1.27;;;25.40;55.50;;;;;;6283706;28;20032;-77
2021/07/06 00:32:16;;;;;;;7.55;1.40;;;25.40;55.60;;;;;;6299630;28;20064;-75
2021/07/06 00:35:18;;;;;;;2.60;1.20;;;25.40;55.60;;;;;;6316285;28;20101;-75
2021/07/06 00:38:19;;;;;;;6.00;1.45;;;25.30;55.80;;;;;;6299922;28;20361;-75
2021/07/06 00:41:20;;;;;;;2.45;1.20;;;25.30;55.90;;;;;;6316967;28;20028;-75
2021/07/06 00:44:22;;;;;;;2.78;1.17;;;25.20;55.80;;;;;;6299786;28;20043;-75
2021/07/06 00:47:34;;;;;;;1.60;1.23;;;25.20;55.90;;;;;;6316872;28;20028;-76
2021/07/06 00:50:36;;;;;;;3.92;1.58;;;25.20;56.20;;;;;;6298848;28;20044;-75
2021/07/06 00:53:37;;;;;;;1.85;1.30;;;25.20;56.20;;;;;;6290961;28;20052;-75
2021/07/06 00:56:39;;;;;;;2.33;1.42;;;25.10;56.40;;;;;;6299568;28;20037;-75
2021/07/06 00:59:40;;;;;;;2.20;1.52;;;25.00;56.50;;;;;;6298997;28;20036;-75
2021/07/06 01:02:42;;;;;;;2.63;1.25;;;25.00;56.70;;;;;;6315871;28;20520;-76
2021/07/06 01:05:43;;;;;;;1.60;1.40;;;25.00;56.90;;;;;;6298836;28;20417;-76
2021/07/06 01:08:45;;;;;;;1.20;1.10;;;24.90;56.90;;;;;;6303374;28;20128;-76
2021/07/06 01:11:47;;;;;;;3.20;1.27;;;24.90;57.00;;;;;;6282691;28;20024;-75
2021/07/06 01:14:48;;;;;;;6.40;1.63;;;24.90;57.00;;;;;;6299213;28;20044;-76
2021/07/06 01:18:16;;;;;;;1.77;1.17;;;24.80;57.00;;;;;;6299101;28;20461;-76
2021/07/06 01:21:17;;;;;;;5.65;1.40;;;24.80;57.20;;;;;;6283727;28;20029;-76
2021/07/06 01:24:19;;;;;;;2.58;1.48;;;24.80;57.30;;;;;;6296406;28;20024;-76
2021/07/06 01:27:20;;;;;;;1.98;1.30;;;24.70;57.50;;;;;;6296977;28;20032;-76
2021/07/06 01:30:21;;;;;;;2.42;1.58;;;24.70;57.70;;;;;;6314676;28;20097;-75
2021/07/06 01:33:25;;;;;;;3.15;1.30;;;24.60;57.90;;;;;;6298008;28;20366;-76
2021/07/06 01:36:26;;;;;;;4.47;1.77;;;24.60;58.10;;;;;;6313827;28;20044;-76
2021/07/06 01:39:29;;;;;;;4.32;1.70;;;24.50;58.00;;;;;;6297267;28;20056;-76
2021/07/06 01:42:30;;;;;;;8.65;1.67;;;24.50;58.20;;;;;;6313959;28;20119;-76
2021/07/06 01:45:32;;;;;;;5.15;1.27;;;24.50;58.40;;;;;;6294424;28;20040;-76
2021/07/06 01:48:33;;;;;;;6.78;1.30;;;24.50;58.50;;;;;;6297549;28;20465;-76
2021/07/06 01:51:34;;;;;;;2.08;1.50;;;24.40;58.60;;;;;;6313554;28;20097;-76
2021/07/06 01:54:38;;;;;;;8.50;1.52;;;24.30;58.80;;;;;;6296486;28;20131;-76
2021/07/06 01:57:40;;;;;;;6.15;1.27;;;24.30;58.90;;;;;;6296421;28;20036;-76
2021/07/06 02:00:50;;;;;;;1.33;1.17;;;24.20;59.00;;;;;;6297445;28;20469;-76
2021/07/06 02:03:52;;;;;;;6.28;1.50;;;24.20;59.20;;;;;;6297091;28;20506;-76
2021/07/06 02:06:53;;;;;;;3.90;1.50;;;24.20;59.20;;;;;;6271980;28;20112;-76
2021/07/06 02:09:54;;;;;;;1.80;1.20;;;24.20;59.10;;;;;;6272413;28;20043;-76
2021/07/06 02:12:57;;;;;;;8.75;1.30;;;24.20;59.20;;;;;;6294502;28;20029;-76
2021/07/06 02:15:59;;;;;;;3.45;1.30;;;24.20;59.20;;;;;;6312292;28;20040;-76
2021/07/06 02:19:00;;;;;;;2.28;1.15;;;24.20;59.10;;;;;;6295645;28;20354;-76
2021/07/06 02:22:02;;;;;;;8.82;1.40;;;24.20;59.10;;;;;;6294939;28;20036;-76
2021/07/06 02:25:07;;;;;;;4.40;1.40;;;24.20;59.00;;;;;;6296158;28;20108;-76
2021/07/06 02:28:08;;;;;;;2.72;1.48;;;24.20;58.90;;;;;;6293237;28;20040;-75
2021/07/06 02:31:09;;;;;;;4.00;1.50;;;24.30;58.70;;;;;;6279713;28;20033;-76
2021/07/06 02:34:10;;;;;;;1.67;1.00;;;24.30;58.70;;;;;;6293485;28;20052;-76
2021/07/06 02:37:12;;;;;;;3.28;1.42;;;24.30;58.60;;;;;;6270628;28;20029;-76
2021/07/06 02:40:15;;;;;;;3.30;1.90;;;24.30;58.60;;;;;;6272224;28;20111;-76
2021/07/06 02:43:16;;;;;;;4.35;1.50;;;24.30;58.60;;;;;;6289484;28;20093;-75
2021/07/06 02:46:20;;;;;;;3.15;1.20;;;24.30;58.40;;;;;;6296021;28;20033;-77
2021/07/06 02:49:21;;;;;;;1.83;1.10;;;24.30;58.50;;;;;;6296025;28;20102;-75
2021/07/06 02:52:22;;;;;;;1.98;1.20;;;24.30;58.30;;;;;;6291683;28;20036;-75
2021/07/06 02:55:23;;;;;;;1.80;1.10;;;24.30;58.30;;;;;;6281876;28;20470;-75
2021/07/06 02:58:25;;;;;;;2.88;1.17;;;24.40;58.30;;;;;;6272120;28;20036;-75
2021/07/06 03:01:26;;;;;;;2.25;1.27;;;24.40;58.10;;;;;;6281975;28;20044;-77
2021/07/06 03:04:28;;;;;;;1.48;1.23;;;24.40;58.00;;;;;;6295998;28;20032;-74
2021/07/06 03:07:29;;;;;;;6.75;1.63;;;24.40;57.90;;;;;;6298222;28;20025;-75
2021/07/06 03:10:36;;;;;;;2.03;1.20;;;24.40;57.90;;;;;;6296382;28;20477;-75
2021/07/06 03:13:43;;;;;;;2.38;1.40;;;24.40;57.80;;;;;;6297805;28;20039;-76
2021/07/06 03:16:45;;;;;;;3.45;1.20;;;24.40;57.80;;;;;;6281955;28;20049;-76
2021/07/06 03:19:46;;;;;;;1.83;1.45;;;24.20;57.80;;;;;;6281013;28;20517;-76
2021/07/06 03:22:48;;;;;;;2.97;1.13;;;24.40;58.00;;;;;;6296225;28;20036;-78
2021/07/06 03:25:50;;;;;;;3.90;1.35;;;24.30;58.20;;;;;;6295966;28;20029;-75
2021/07/06 03:28:51;;;;;;;5.53;1.40;;;24.30;58.30;;;;;;6296857;28;20021;-75
2021/07/06 03:31:52;;;;;;;2.13;1.60;;;24.30;58.40;;;;;;6297429;28;20381;-75
2021/07/06 03:34:53;;;;;;;1.75;1.30;;;24.20;58.40;;;;;;6318475;28;20457;-75
2021/07/06 03:37:56;;;;;;;1.65;1.27;;;24.20;58.60;;;;;;6326728;28;20036;-75
2021/07/06 03:40:57;;;;;;;1.60;1.23;;;24.10;58.60;;;;;;6326592;28;20036;-77
2021/07/06 03:43:58;;;;;;;3.50;1.17;;;24.10;58.70;;;;;;6326621;28;20524;-75
2021/07/06 03:46:59;;;;;;;1.27;1.15;;;24.10;58.80;;;;;;6327518;28;20123;-75
2021/07/06 03:50:01;;;;;;;3.20;1.10;;;24.10;58.90;;;;;;6326104;28;20119;-75
2021/07/06 03:53:04;;;;;;;4.35;1.20;;;24.00;58.80;;;;;;6326919;28;20045;-75
2021/07/06 03:56:05;;;;;;;5.18;1.52;;;24.10;58.90;;;;;;6285691;28;20389;-74
2021/07/06 03:59:07;;;;;;;5.38;1.35;;;24.10;58.90;;;;;;6266205;28;20028;-76
2021/07/06 04:02:08;;;;;;;3.88;1.40;;;24.10;58.90;;;;;;6300893;28;20453;-75
2021/07/06 04:05:11;;;;;;;4.43;1.35;;;24.10;58.80;;;;;;6300722;28;20446;-77
2021/07/06 04:08:37;;;;;;;4.57;1.60;;;24.20;58.80;;;;;;6300092;28;20037;-76
2021/07/06 04:11:39;;;;;;;5.50;1.48;;;24.20;58.60;;;;;;6297102;28;20044;-76
2021/07/06 04:14:41;;;;;;;2.33;1.50;;;24.20;58.60;;;;;;6298116;28;20037;-75
2021/07/06 04:17:43;;;;;;;2.30;1.52;;;24.20;58.60;;;;;;6299363;28;20110;-75
2021/07/06 04:20:44;;;;;;;4.20;1.40;;;24.20;58.50;;;;;;6299547;28;20028;-75
2021/07/06 04:23:45;;;;;;;2.78;1.27;;;24.20;58.50;;;;;;6299180;28;20040;-76
2021/07/06 04:26:46;;;;;;;2.30;1.33;;;24.20;58.50;;;;;;6298420;28;20484;-76
2021/07/06 04:29:48;;;;;;;4.32;1.63;;;24.20;58.40;;;;;;6280787;28;20044;-76
2021/07/06 04:32:49;;;;;;;3.17;1.42;;;24.20;58.30;;;;;;6317728;28;20043;-75
2021/07/06 04:35:50;;;;;;;4.22;1.60;;;24.20;58.20;;;;;;6306764;28;20044;-75
2021/07/06 04:38:52;;;;;;;2.97;1.88;;;24.30;58.10;;;;;;6322823;28;20040;-75
2021/07/06 04:41:53;;;;;;;3.33;1.75;;;24.30;57.80;;;;;;6320211;28;20036;-75
2021/07/06 04:44:54;;;;;;;4.53;1.60;;;24.30;57.70;;;;;;6271657;28;20033;-74
2021/07/06 04:47:55;;;;;;;4.90;1.67;;;24.30;57.40;;;;;;6273900;28;20091;-74
2021/07/06 04:51:04;;;;;;;12.20;2.03;;;24.30;57.20;;;;;;6275061;28;20033;-74
2021/07/06 04:54:05;;;;;;;;;;;24.50;57.00;;;;;;6277459;28;20385;-75
2021/07/06 04:57:06;;;;;;;2.67;2.20;;;24.40;56.80;;;;;;6299079;28;19943;-75
2021/07/06 05:00:10;;;;;;;4.72;1.73;;;24.40;56.50;;;;;;6314959;28;20048;-75
2021/07/06 05:03:12;;;;;;;2.97;1.80;;;24.50;56.50;;;;;;6298606;28;20185;-75
2021/07/06 05:06:14;;;;;;;3.15;1.98;;;24.40;56.30;;;;;;6298882;28;20036;-75
2021/07/06 05:09:15;;;;;;;1.85;1.50;;;24.50;56.00;;;;;;6314681;28;20373;-75
2021/07/06 05:12:16;;;;;;;2.55;1.58;;;24.50;55.80;;;;;;6297103;28;20043;-73
2021/07/06 05:15:18;;;;;;;2.97;1.67;;;24.60;55.10;;;;;;6314816;28;20041;-75
2021/07/06 05:18:20;;;;;;;5.10;1.73;;;24.70;54.70;;;;;;6297695;28;20048;-75
2021/07/06 05:21:21;;;;;;;2.90;1.73;;;24.70;54.30;;;;;;6313439;28;20036;-74
2021/07/06 05:24:23;;;;;;;2.28;1.50;;;24.90;54.10;;;;;;6297361;28;20047;-76
2021/07/06 05:27:24;;;;;;;2.05;1.70;;;25.00;53.70;;;;;;6297400;28;20115;-74
2021/07/06 05:30:25;;;;;;;8.93;1.67;;;25.10;53.10;;;;;;6273959;28;20060;-76
2021/07/06 05:33:27;;;;;;;3.88;1.25;;;25.20;52.60;;;;;;6291789;28;20044;-76
2021/07/06 05:36:29;;;;;;;3.28;1.70;;;25.30;52.60;;;;;;6271552;28;20457;-76
2021/07/06 05:39:31;;;;;;;4.60;1.73;;;25.40;52.80;;;;;;6273589;28;20041;-77
2021/07/06 05:42:36;;;;;;;4.72;1.73;;;25.40;53.20;;;;;;6271519;28;20071;-77
2021/07/06 05:45:37;;;;;;;3.05;1.50;;;25.50;53.60;;;;;;6296193;28;20036;-77
2021/07/06 05:48:38;;;;;;;4.28;1.90;;;25.50;53.70;;;;;;6295889;28;20032;-75
2021/07/06 05:51:40;;;;;;;2.05;1.48;;;25.50;53.80;;;;;;6296548;28;20423;-75
2021/07/06 05:54:41;;;;;;;4.70;1.40;;;25.50;53.90;;;;;;6273563;28;20056;-75
2021/07/06 05:57:43;;;;;;;5.28;1.90;;;25.50;53.80;;;;;;6294275;28;20388;-76
2021/07/06 06:00:44;;;;;;;4.43;1.92;;;25.60;53.90;;;;;;6322456;28;20089;-75
2021/07/06 06:03:46;;;;;;;5.30;1.70;;;25.60;53.90;;;;;;6302314;28;20446;-75
2021/07/06 06:06:47;;;;;;;11.35;4.00;;;25.70;53.90;;;;;;6276712;28;20029;-75
2021/07/06 06:09:48;;;;;;;4.97;2.03;;;25.70;53.70;;;;;;6294548;28;20391;-76
2021/07/06 06:12:49;;;;;;;7.35;1.85;;;25.80;53.70;;;;;;6296788;28;20040;-76
2021/07/06 06:15:50;;;;;;;3.75;1.52;;;25.80;53.40;;;;;;6276886;28;20052;-76
2021/07/06 06:18:55;;;;;;;4.10;1.58;;;25.90;53.30;;;;;;6291992;28;20033;-75
2021/07/06 06:21:57;;;;;;;3.35;1.55;;;26.00;53.20;;;;;;6295306;28;20037;-76
2021/07/06 06:24:58;;;;;;;11.38;2.40;;;26.10;52.90;;;;;;6295445;28;20594;-74
2021/07/06 06:27:59;;;;;;;10.32;1.85;;;26.10;52.80;;;;;;6297156;28;20036;-75
2021/07/06 06:31:01;;;;;;;3.20;1.30;;;26.20;52.60;;;;;;6278884;28;20365;-75
2021/07/06 06:34:02;;;;;;;1.85;1.33;;;26.30;52.40;;;;;;6309505;28;20036;-75
2021/07/06 06:37:03;;;;;;;2.47;1.23;;;26.40;52.10;;;;;;6320814;28;20028;-75
2021/07/06 06:40:07;;;;;;;7.15;1.85;;;26.60;51.90;;;;;;6321177;28;20039;-75
2021/07/06 06:43:08;;;;;;;9.77;2.00;;;26.70;51.70;;;;;;6254651;28;20029;-75
2021/07/06 06:46:09;;;;;;;3.53;1.55;;;27.00;51.30;;;;;;6286825;28;20033;-76
2021/07/06 06:49:10;;;;;;;2.33;1.50;;;27.20;50.90;;;;;;6271076;28;20025;-76
2021/07/06 06:52:12;;;;;;;1.67;1.15;;;27.40;50.50;;;;;;6272599;28;20033;-75
2021/07/06 06:55:13;;;;;;;6.68;2.83;;;27.60;50.10;;;;;;6271925;28;20478;-76
2021/07/06 06:58:14;;;;;;;2.47;1.30;;;27.70;50.00;;;;;;6273132;28;20032;-75
2021/07/06 07:01:15;;;;;;;8.52;1.80;;;27.70;50.00;;;;;;6295589;28;20060;-75
2021/07/06 07:04:17;;;;;;;6.95;1.63;;;27.70;50.00;;;;;;6296856;28;20067;-75
2021/07/06 07:07:20;;;;;;;3.78;1.60;;;27.70;50.00;;;;;;6297994;28;20560;-75
2021/07/06 07:10:21;;;;;;;9.45;1.60;;;27.70;49.70;;;;;;6302871;28;20035;-76
2021/07/06 07:13:24;;;;;;;2.60;1.50;;;27.90;49.60;;;;;;6302114;28;20028;-75
2021/07/06 07:16:27;;;;;;;3.92;1.95;;;28.30;48.70;;;;;;6278933;28;20044;-76
2021/07/06 07:19:28;;;;;;;9.75;1.42;;;28.70;47.90;;;;;;6260994;28;20127;-76
2021/07/06 07:22:29;;;;;;;3.55;1.40;;;28.70;47.70;;;;;;6293509;28;20103;-76
2021/07/06 07:25:32;;;;;;;3.85;1.70;;;28.60;47.60;;;;;;6275677;28;20183;-76
2021/07/06 07:28:33;;;;;;;7.32;2.08;;;28.60;47.70;;;;;;6292455;28;20037;-76
2021/07/06 07:31:37;;;;;;;3.53;1.83;;;28.60;47.60;;;;;;6276710;28;20033;-76
2021/07/06 07:34:38;;;;;;;4.80;1.80;;;28.70;47.50;;;;;;6301289;28;20048;-76
2021/07/06 07:37:40;;;;;;;2.58;1.60;;;28.70;47.30;;;;;;6284690;28;20090;-77
2021/07/06 07:40:41;;;;;;;4.97;1.80;;;28.80;47.10;;;;;;6302021;28;20036;-75
2021/07/06 07:43:42;;;;;;;8.00;1.85;;;28.80;46.80;;;;;;6301043;28;20032;-76
2021/07/06 07:46:44;;;;;;;3.05;1.38;;;28.80;46.60;;;;;;6300887;28;20033;-74
2021/07/06 07:49:45;;;;;;;13.23;3.00;;;28.80;46.50;;;;;;6302405;28;20097;-75
2021/07/06 07:52:47;;;;;;;4.78;2.00;;;28.80;46.40;;;;;;6301562;28;20051;-75
2021/07/06 07:55:51;;;;;;;1.88;1.60;;;28.90;46.30;;;;;;6301516;28;20067;-75
2021/07/06 07:58:52;;;;;;;5.05;2.03;;;29.00;46.10;;;;;;6301362;28;20098;-75
2021/07/06 08:01:53;;;;;;;3.20;1.27;;;29.10;45.80;;;;;;6301702;28;20052;-75
2021/07/06 08:04:55;;;;;;;5.10;1.95;;;29.20;45.60;;;;;;6300955;28;20447;-76
2021/07/06 08:07:56;;;;;;;5.10;2.10;;;29.30;45.30;;;;;;6299894;28;20127;-76
2021/07/06 08:10:59;;;;;;;7.38;2.22;;;29.30;45.10;;;;;;6300240;28;20033;-76
2021/07/06 08:14:00;;;;;;;9.93;1.70;;;29.40;44.90;;;;;;6301484;28;20044;-75
2021/07/06 08:17:03;;;;;;;8.35;1.98;;;29.40;44.50;;;;;;6266732;28;20056;-75
2021/07/06 08:20:06;;;;;;;1.55;1.40;;;29.40;44.10;;;;;;6299447;28;20036;-75
2021/07/06 08:23:08;;;;;;;3.88;1.50;;;29.50;43.90;;;;;;6300634;28;20079;-75
2021/07/06 08:26:09;;;;;;;5.47;1.73;;;29.60;43.70;;;;;;6283041;28;20067;-75
2021/07/06 08:29:12;;;;;;;2.95;1.48;;;29.60;43.60;;;;;;6291033;28;20028;-77
2021/07/06 08:32:13;;;;;;;4.97;2.15;;;29.60;43.50;;;;;;6259505;28;20033;-77
2021/07/06 08:35:15;;;;;;;3.55;1.73;;;29.60;43.40;;;;;;6299041;28;20036;-76
2021/07/06 08:38:16;;;;;;;5.45;2.00;;;29.80;43.50;;;;;;6300064;28;20036;-76
2021/07/06 08:41:18;;;;;;;5.50;1.90;;;29.90;43.30;;;;;;6283550;28;20115;-77
2021/07/06 08:44:21;;;;;;;2.03;1.70;;;29.90;43.30;;;;;;6299191;28;20032;-76
2021/07/06 08:47:23;;;;;;;7.13;1.85;;;29.90;43.40;;;;;;6299674;28;20035;-76
2021/07/06 08:50:25;;;;;;;5.65;3.63;;;29.90;43.20;;;;;;6300282;28;20407;-76
2021/07/06 08:53:29;;;;;;;3.50;2.00;;;29.90;43.10;;;;;;6315222;28;20051;-76
2021/07/06 08:56:30;;;;;;;7.60;1.70;;;30.00;43.10;;;;;;6298093;28;20045;-75
2021/07/06 08:59:38;;;;;;;5.15;1.77;;;30.10;42.80;;;;;;6275418;28;20469;-75
2021/07/06 09:02:39;;;;;;;7.40;1.90;;;30.20;42.70;;;;;;6274951;28;20044;-77
2021/07/06 09:05:40;;;;;;;8.20;1.70;;;30.40;42.20;;;;;;6265473;28;20068;-76
2021/07/06 09:08:41;;;;;;;3.13;1.70;;;30.40;42.10;;;;;;6299393;28;20037;-76
2021/07/06 09:11:46;;;;;;;2.72;1.60;;;30.60;42.00;;;;;;6315576;28;20040;-75
2021/07/06 09:14:50;;;;;;;4.50;1.80;;;30.70;41.60;;;;;;6280737;28;20127;-75
2021/07/06 09:18:06;;;;;;;4.90;1.70;;;30.80;41.40;;;;;;6298661;28;20040;-75
2021/07/06 09:21:12;;;;;;;4.80;1.92;;;30.90;41.20;;;;;;6296868;28;20024;-75
2021/07/06 09:24:24;;;;;;;2.35;1.50;;;31.10;41.00;;;;;;6315711;28;20048;-75
2021/07/06 09:27:32;;;;;;;5.97;1.77;;;31.20;40.40;;;;;;6296439;28;20029;-76
2021/07/06 09:30:33;;;;;;;12.00;2.03;;;31.40;40.90;;;;;;6296125;28;20338;-75
2021/07/06 09:33:34;;;;;;;2.33;1.65;;;31.40;39.90;;;;;;6297164;28;20028;-74
2021/07/06 09:36:40;;;;;;;2.22;1.70;;;31.50;39.80;;;;;;6295800;28;20063;-76
2021/07/06 09:39:41;;;;;;;5.68;1.90;;;31.50;40.00;;;;;;6313356;28;20048;-76
2021/07/06 09:42:42;;;;;;;5.40;1.67;;;31.60;39.80;;;;;;6296182;28;20120;-76
2021/07/06 09:45:56;;;;;;;4.13;1.60;;;31.60;39.80;;;;;;6295077;28;20028;-77
2021/07/06 09:49:00;;;;;;;6.18;1.60;;;31.60;39.50;;;;;;6296514;28;20025;-75
2021/07/06 09:52:19;;;;;;;2.72;1.60;;;31.50;39.40;;;;;;6296961;28;20028;-76
2021/07/06 09:55:31;;;;;;;5.07;1.77;;;31.40;39.50;;;;;;6311997;28;20040;-75
2021/07/06 09:58:32;;;;;;;2.00;1.70;;;31.40;39.50;;;;;;6295059;28;20036;-76
2021/07/06 10:01:34;;;;;;;3.88;2.00;;;31.50;39.60;;;;;;6293764;28;20040;-75
2021/07/06 10:04:36;;;;;;;3.47;1.55;;;31.50;39.70;;;;;;6282576;28;20037;-76
2021/07/06 10:07:39;;;;;;;2.05;1.73;;;31.60;39.70;;;;;;6282872;28;20036;-75
2021/07/06 10:10:41;;;;;;;8.95;1.90;;;31.60;39.60;;;;;;6274594;28;20029;-75
2021/07/06 10:13:42;;;;;;;2.17;1.67;;;31.70;39.60;;;;;;6294573;28;20036;-76
2021/07/06 10:16:44;;;;;;;8.52;1.95;;;31.70;39.40;;;;;;6293044;28;20052;-76
2021/07/06 10:19:46;;;;;;;4.35;1.95;;;31.60;39.30;;;;;;6294624;28;20051;-76
2021/07/06 10:22:52;;;;;;;4.85;1.83;;;31.50;39.60;;;;;;6294952;28;20021;-75
2021/07/06 10:25:55;;;;;;;2.60;1.70;;;31.50;39.70;;;;;;6311489;28;20032;-76
2021/07/06 10:28:56;;;;;;;5.50;2.20;;;31.60;39.80;;;;;;6290730;28;20040;-76
2021/07/06 10:32:41;;;;;;;4.25;2.35;;;31.60;39.60;;;;;;6295047;28;20060;-77
2021/07/06 10:35:47;;;;;;;3.50;2.03;;;31.60;39.70;;;;;;6319740;28;20044;-77
2021/07/06 10:38:58;;;;;;;7.05;2.67;;;31.60;39.80;;;;;;6320735;28;20033;-76
2021/07/06 10:41:59;;;;;;;8.23;2.30;;;31.50;40.10;;;;;;6300195;28;20097;-76
2021/07/06 10:45:19;;;;;;;3.97;2.25;;;31.40;40.30;;;;;;6290693;28;20470;-75
2021/07/06 10:48:41;;;;;;;3.05;1.80;;;31.20;40.60;;;;;;6262538;28;20437;-77
2021/07/06 10:51:44;;;;;;;8.95;2.35;;;31.10;40.70;;;;;;6295495;28;20295;-76
2021/07/06 10:54:45;;;;;;;5.30;1.90;;;31.10;40.60;;;;;;6293862;28;20061;-75
2021/07/06 10:57:49;;;;;;;3.83;2.42;;;31.10;40.40;;;;;;6314404;28;20040;-75
2021/07/06 11:00:51;;;;;;;3.65;2.22;;;31.20;40.30;;;;;;6300454;28;20410;-76
2021/07/06 11:03:52;;;;;;;4.70;2.08;;;31.30;40.30;;;;;;6280811;28;20033;-76
2021/07/06 11:06:53;;;;;;;4.45;1.77;;;31.50;40.40;;;;;;6258994;28;20040;-75
2021/07/06 11:09:55;;;;;;;4.53;2.08;;;31.60;40.20;;;;;;6274504;28;20505;-75
2021/07/06 11:13:10;;;;;;;2.13;1.92;;;31.70;40.10;;;;;;6273760;28;20040;-76
2021/07/06 11:16:35;;;;;;;3.17;2.08;;;31.90;39.90;;;;;;6277681;28;20056;-77
2021/07/06 11:19:42;;;;;;;5.53;1.90;;;32.10;39.80;;;;;;6270412;28;20051;-75
2021/07/06 11:22:54;;;;;;;4.80;2.03;;;32.40;39.80;;;;;;6306195;28;20043;-76
2021/07/06 11:26:02;;;;;;;5.13;2.53;;;33.30;39.10;;;;;;6292627;28;20060;-75
2021/07/06 11:29:03;;;;;;;3.53;2.30;;;33.60;38.30;;;;;;6275277;28;20033;-75
2021/07/06 11:32:16;;;;;;;3.72;2.30;;;33.90;38.30;;;;;;6292168;28;20357;-75
2021/07/06 11:35:17;;;;;;;3.53;2.30;;;34.60;37.10;;;;;;6300200;28;20040;-74
2021/07/06 11:38:22;;;;;;;3.80;2.13;;;35.30;36.20;;;;;;6298744;28;20365;-76
2021/07/06 11:41:26;;;;;;;3.40;2.30;;;35.90;35.40;;;;;;6315811;28;20104;-75
2021/07/06 11:44:27;;;;;;;8.13;2.38;;;36.40;34.40;;;;;;6317876;28;20047;-75
2021/07/06 11:47:28;;;;;;;4.30;2.40;;;36.90;33.60;;;;;;6251729;28;20069;-76
2021/07/06 11:50:30;;;;;;;4.68;2.60;;;37.20;32.90;;;;;;6227932;28;20060;-76
2021/07/06 11:53:32;;;;;;;5.47;2.67;;;37.20;32.80;;;;;;6283846;28;20053;-76
2021/07/06 11:56:36;;;;;;;6.22;2.28;;;36.80;33.30;;;;;;6286146;28;20478;-75
2021/07/06 11:59:37;;;;;;;5.28;2.22;;;36.40;33.50;;;;;;6270034;28;20055;-76
2021/07/06 12:02:38;;;;;;;5.75;2.20;;;35.90;34.20;;;;;;6284043;28;20040;-77
2021/07/06 12:05:40;;;;;;;8.32;2.33;;;35.60;34.70;;;;;;6296663;28;20043;-75
2021/07/06 12:08:44;;;;;;;9.25;2.38;;;35.30;35.20;;;;;;6295377;28;20039;-75
2021/07/06 12:11:45;;;;;;;3.33;2.00;;;35.10;35.30;;;;;;6296223;28;20033;-75
2021/07/06 12:14:49;;;;;;;3.17;2.20;;;34.50;36.10;;;;;;6296724;28;20039;-77
2021/07/06 12:17:50;;;;;;;3.63;2.30;;;33.90;37.10;;;;;;6296401;28;20039;-74
2021/07/06 12:20:53;;;;;;;2.65;2.10;;;33.40;37.90;;;;;;6289544;28;20029;-76
2021/07/06 12:23:58;;;;;;;3.25;1.95;;;33.40;38.20;;;;;;6269945;28;20354;-76
2021/07/06 12:27:01;;;;;;;4.88;2.50;;;33.20;38.40;;;;;;6272773;28;20025;-76
2021/07/06 12:30:03;;;;;;;4.25;2.28;;;33.50;38.40;;;;;;6272950;28;20032;-75
2021/07/06 12:33:08;;;;;;;9.35;2.67;;;34.10;37.50;;;;;;6297003;28;20032;-75
2021/07/06 12:36:09;;;;;;;3.33;2.15;;;34.90;36.40;;;;;;6321635;28;20051;-76
2021/07/06 12:39:19;;;;;;;4.82;2.15;;;35.40;35.40;;;;;;6306288;28;20395;-76
2021/07/06 12:42:23;;;;;;;3.15;2.25;;;35.90;34.60;;;;;;6305427;28;20036;-75
2021/07/06 12:45:34;;;;;;;4.97;2.13;;;36.10;34.10;;;;;;6272280;28;20424;-75
2021/07/06 12:48:35;;;;;;;3.35;2.33;;;35.80;34.40;;;;;;6247533;28;20037;-75
2021/07/06 12:51:56;;;;;;;5.22;2.22;;;35.50;34.80;;;;;;6282462;28;20450;-74
2021/07/06 12:55:13;;;;;;;3.92;2.00;;;35.60;34.80;;;;;;6271375;28;20436;-76
2021/07/06 12:58:14;;;;;;;9.48;2.53;;;36.00;34.10;;;;;;6288842;28;20033;-75
2021/07/06 13:01:33;;;;;;;8.52;2.53;;;36.20;34.00;;;;;;6289034;28;20131;-75
2021/07/06 13:04:57;;;;;;;2.30;2.10;;;36.40;33.30;;;;;;6280286;28;20037;-76
2021/07/06 13:08:00;;;;;;;7.22;2.30;;;36.70;33.00;;;;;;6244444;28;20111;-76
2021/07/06 13:11:13;;;;;;;4.63;2.50;;;37.00;32.60;;;;;;6266376;28;20028;-75
2021/07/06 13:14:23;;;;;;;7.57;2.40;;;37.60;32.00;;;;;;6258269;28;20538;-75
2021/07/06 13:17:26;;;;;;;8.55;2.17;;;37.70;31.50;;;;;;6260284;28;20109;-75
2021/07/06 13:20:31;;;;;;;6.97;2.63;;;37.80;31.30;;;;;;6310986;28;20041;-76
2021/07/06 13:23:33;;;;;;;3.40;2.00;;;38.00;30.90;;;;;;6295699;28;20048;-76
2021/07/06 13:26:34;;;;;;;4.70;2.58;;;37.80;31.00;;;;;;6294109;28;20306;-75
2021/07/06 13:29:36;;;;;;;3.08;2.10;;;37.40;31.70;;;;;;6292881;28;20517;-75
2021/07/06 13:32:42;;;;;;;5.18;2.65;;;37.10;32.10;;;;;;6310332;28;20043;-75
2021/07/06 13:35:49;;;;;;;5.80;2.83;;;36.50;33.10;;;;;;6276618;28;20119;-75
2021/07/06 13:38:50;;;;;;;5.90;2.87;;;36.00;33.50;;;;;;6294680;28;20113;-76
2021/07/06 13:41:52;;;;;;;5.90;2.35;;;35.30;34.70;;;;;;6309794;28;20033;-76
2021/07/06 13:44:53;;;;;;;3.78;2.35;;;34.60;35.90;;;;;;6292896;28;20036;-76
2021/07/06 13:47:54;;;;;;;3.25;2.47;;;34.10;36.80;;;;;;6310662;28;20043;-76
2021/07/06 13:50:56;;;;;;;7.20;2.40;;;33.90;37.10;;;;;;6293195;28;20036;-75
2021/07/06 13:54:04;;;;;;;11.02;2.78;;;33.60;38.00;;;;;;6276945;28;20321;-75
2021/07/06 13:57:08;;;;;;;6.70;2.28;;;33.10;38.70;;;;;;6292617;28;20075;-75
2021/07/06 14:00:10;;;;;;;3.30;1.90;;;32.80;39.40;;;;;;6306808;28;20032;-75
2021/07/06 14:03:16;;;;;;;6.35;2.25;;;32.60;40.10;;;;;;6303853;28;20417;-75
2021/07/06 14:06:17;;;;;;;8.20;2.25;;;32.10;40.80;;;;;;6293555;28;20064;-77
2021/07/06 14:09:18;;;;;;;4.97;2.38;;;32.00;41.40;;;;;;6291604;28;20028;-76
2021/07/06 14:12:20;;;;;;;6.18;1.83;;;31.80;41.50;;;;;;6293462;28;20387;-74
2021/07/06 14:15:22;;;;;;;3.00;1.92;;;31.70;41.70;;;;;;6310252;28;20399;-75
2021/07/06 14:18:23;;;;;;;4.53;1.60;;;31.60;41.80;;;;;;6291582;28;20089;-76
2021/07/06 14:21:25;;;;;;;3.38;1.73;;;31.40;41.90;;;;;;6309041;28;20028;-75
2021/07/06 14:24:26;;;;;;;2.20;1.85;;;31.40;41.90;;;;;;6266796;28;20120;-76
2021/07/06 14:27:28;;;;;;;3.38;1.77;;;31.30;42.20;;;;;;6293079;28;20194;-75
2021/07/06 14:30:30;;;;;;;2.55;1.80;;;31.10;42.60;;;;;;6291789;28;20041;-75
2021/07/06 14:33:31;;;;;;;2.20;1.77;;;30.80;42.90;;;;;;6277729;28;20037;-76
2021/07/06 14:36:33;;;;;;;4.50;1.90;;;30.40;43.30;;;;;;6269424;28;20045;-76
2021/07/06 14:39:34;;;;;;;3.63;1.77;;;30.30;43.80;;;;;;6251371;28;20087;-75
2021/07/06 14:42:35;;;;;;;4.88;1.65;;;30.10;44.00;;;;;;6268076;28;20086;-75
2021/07/06 14:45:36;;;;;;;1.88;1.30;;;29.90;44.30;;;;;;6268760;28;20033;-75
2021/07/06 14:48:38;;;;;;;6.03;1.60;;;29.80;44.70;;;;;;6262566;28;20044;-76
2021/07/06 14:51:39;;;;;;;1.77;1.35;;;29.50;45.00;;;;;;6292996;28;20170;-76
2021/07/06 14:54:40;;;;;;;1.05;1.00;;;29.20;45.30;;;;;;6292853;28;20385;-75
2021/07/06 14:57:41;;;;;;;1.73;1.00;;;28.90;45.20;;;;;;6292485;28;20043;-75
2021/07/06 15:00:42;;;;;;;0.95;0.80;;;28.60;45.40;;;;;;6309126;28;20082;-77
2021/07/06 15:03:46;;;;;;;1.42;1.10;;;28.30;45.70;;;;;;6291747;28;20065;-76
2021/07/06 15:06:48;;;;;;;4.22;0.95;;;28.10;45.90;;;;;;6309302;28;20482;-75
2021/07/06 15:09:50;;;;;;;2.63;1.27;;;27.90;46.10;;;;;;6309199;28;20032;-75
2021/07/06 15:12:52;;;;;;;1.05;0.80;;;27.80;46.20;;;;;;6292750;28;20171;-75
2021/07/06 15:15:56;;;;;;;2.33;0.90;;;27.70;46.20;;;;;;6310849;28;20097;-75
2021/07/06 15:18:57;;;;;;;3.17;1.00;;;27.50;46.30;;;;;;6280685;28;20057;-76
2021/07/06 15:21:58;;;;;;;0.82;0.80;;;27.30;47.10;;;;;;6270457;28;20056;-76
2021/07/06 15:24:59;;;;;;;1.40;1.00;;;27.20;48.00;;;;;;6268672;28;20366;-76
2021/07/06 15:28:01;;;;;;;1.48;0.95;;;27.00;48.20;;;;;;6269907;28;20179;-74
2021/07/06 15:31:05;;;;;;;4.05;0.70;;;27.00;48.30;;;;;;6257833;28;20059;-75
2021/07/06 15:34:06;;;;;;;2.05;0.80;;;26.90;48.10;;;;;;6258141;28;20102;-76
2021/07/06 15:37:08;;;;;;;4.68;0.95;;;26.80;47.90;;;;;;6312104;28;20050;-76
2021/07/06 15:40:09;;;;;;;2.58;1.00;;;26.70;48.00;;;;;;6298937;28;20468;-76
2021/07/06 15:43:11;;;;;;;1.70;1.00;;;26.60;48.30;;;;;;6297767;28;20364;-76
2021/07/06 15:46:12;;;;;;;1.75;1.00;;;26.50;48.50;;;;;;6314431;28;20028;-76
2021/07/06 15:49:13;;;;;;;4.63;1.42;;;26.30;49.40;;;;;;6298787;28;20090;-75
2021/07/06 15:52:14;;;;;;;3.58;1.13;;;26.20;49.30;;;;;;6296746;28;20063;-75
2021/07/06 15:55:15;;;;;;;0.80;0.80;;;26.10;49.70;;;;;;6297686;28;20347;-75